Time;durP1;ratioP1;P1;durP2;ratioP2;P2;SDS_P1;SDS_P2;PMS_P1;PMS_P2;Temp;Humidity;BMP_temperature;BMP_pressure;BME280_temperature;BME280_humidity;BME280_pressure;Samples;Min_cycle;Max_cycle;Signal;HPM_P1;HPM_P2
2023/04/08 00:01:07;;;;;;;9.82;8.82;;;6.20;99.90;;;;;;4974108;28;20471;-65
2023/04/08 00:03:32;;;;;;;10.07;8.68;;;6.30;99.90;;;;;;4977374;28;20038;-63
2023/04/08 00:05:59;;;;;;;10.23;8.55;;;6.30;99.90;;;;;;4971835;28;20045;-64
2023/04/08 00:08:25;;;;;;;9.65;8.65;;;6.30;99.90;;;;;;4970442;28;20038;-64
2023/04/08 00:10:51;;;;;;;8.80;7.63;;;6.30;99.90;;;;;;4963921;28;20046;-64
2023/04/08 00:13:16;;;;;;;10.02;8.20;;;6.30;99.90;;;;;;4965899;28;20050;-63
2023/04/08 00:15:42;;;;;;;8.75;7.63;;;6.30;99.90;;;;;;4962984;28;20066;-63
2023/04/08 00:18:08;;;;;;;8.63;7.60;;;6.20;99.90;;;;;;4969987;28;20133;-63
2023/04/08 00:20:33;;;;;;;8.90;7.97;;;6.20;99.90;;;;;;4967439;28;20041;-63
2023/04/08 00:22:59;;;;;;;7.75;6.95;;;6.20;99.90;;;;;;4970381;28;20042;-64
2023/04/08 00:25:24;;;;;;;8.88;7.32;;;6.20;99.90;;;;;;4963021;28;20039;-64
2023/04/08 00:27:50;;;;;;;8.43;7.45;;;6.20;99.90;;;;;;4942894;28;20035;-64
2023/04/08 00:30:16;;;;;;;8.60;6.82;;;6.20;99.90;;;;;;4956795;28;20557;-65
2023/04/08 00:32:42;;;;;;;7.97;6.93;;;6.30;99.90;;;;;;4963455;28;21640;-65
2023/04/08 00:35:08;;;;;;;7.97;7.18;;;6.30;99.90;;;;;;4963920;28;20043;-65
2023/04/08 00:37:34;;;;;;;7.55;6.75;;;6.20;99.90;;;;;;4964863;28;20225;-64
2023/04/08 00:39:59;;;;;;;9.18;7.68;;;6.20;99.90;;;;;;4960659;28;20113;-65
2023/04/08 00:42:25;;;;;;;7.22;6.53;;;6.20;99.90;;;;;;4965691;28;20467;-66
2023/04/08 00:44:51;;;;;;;8.35;7.13;;;6.10;99.90;;;;;;4955648;28;20563;-65
2023/04/08 00:47:17;;;;;;;7.93;6.95;;;6.10;99.90;;;;;;4962689;28;20177;-65
2023/04/08 00:49:44;;;;;;;8.80;7.30;;;6.00;99.90;;;;;;4948702;28;20054;-65
2023/04/08 00:52:10;;;;;;;8.82;7.93;;;6.00;99.90;;;;;;4961329;28;20062;-65
2023/04/08 00:54:37;;;;;;;8.68;7.50;;;6.00;99.90;;;;;;4964098;28;20117;-64
2023/04/08 00:57:04;;;;;;;8.48;7.57;;;6.00;99.90;;;;;;4962906;28;20109;-65
2023/04/08 00:59:31;;;;;;;9.20;8.15;;;6.00;99.90;;;;;;4959731;28;20041;-65
2023/04/08 01:02:13;;;;;;;9.80;8.43;;;5.90;99.90;;;;;;4956377;28;20031;-64
2023/04/08 01:04:57;;;;;;;;;;;5.90;99.90;;;;;;4960819;28;20034;-65
2023/04/08 01:07:34;;;;;;;9.13;7.60;;;5.90;99.90;;;;;;4950593;28;20482;-70
2023/04/08 01:10:11;;;;;;;8.20;7.40;;;6.00;99.90;;;;;;4963542;28;20046;-70
2023/04/08 01:12:45;;;;;;;8.35;7.55;;;5.90;99.90;;;;;;4961190;28;20027;-70
2023/04/08 01:15:11;;;;;;;9.65;8.45;;;5.90;99.90;;;;;;4964146;28;20061;-70
2023/04/08 01:17:39;;;;;;;8.88;7.85;;;5.90;99.90;;;;;;4965457;28;20089;-70
2023/04/08 01:20:07;;;;;;;9.00;8.10;;;5.80;99.90;;;;;;4964298;28;20042;-70
2023/04/08 01:22:54;;;;;;;9.07;8.00;;;5.80;99.90;;;;;;4962730;28;20038;-70
2023/04/08 01:25:25;;;;;;;10.18;8.45;;;5.80;99.90;;;;;;4958966;28;20055;-70
2023/04/08 01:27:56;;;;;;;9.55;8.13;;;5.80;99.90;;;;;;4963660;28;20045;-64
2023/04/08 01:30:23;;;;;;;8.65;7.32;;;5.80;99.90;;;;;;4955580;28;20042;-64
2023/04/08 01:32:51;;;;;;;9.80;8.43;;;5.80;99.90;;;;;;4963087;28;20084;-64
2023/04/08 01:35:17;;;;;;;8.75;7.85;;;5.80;99.90;;;;;;4980659;28;20077;-65
2023/04/08 01:37:45;;;;;;;9.20;7.38;;;5.80;99.90;;;;;;4967393;28;20038;-65
2023/04/08 01:40:12;;;;;;;9.68;8.15;;;5.80;99.90;;;;;;4961773;28;20042;-65
2023/04/08 01:42:38;;;;;;;8.32;7.53;;;5.80;99.90;;;;;;4964070;28;20313;-65
2023/04/08 01:45:05;;;;;;;9.20;8.30;;;5.70;99.90;;;;;;4967073;28;20052;-64
2023/04/08 01:47:33;;;;;;;8.43;7.53;;;5.70;99.90;;;;;;4967704;28;20038;-65
2023/04/08 01:50:00;;;;;;;8.45;7.55;;;5.70;99.90;;;;;;4964204;28;20139;-65
2023/04/08 01:52:27;;;;;;;8.80;7.82;;;5.70;99.90;;;;;;4961550;28;20578;-65
2023/04/08 01:54:53;;;;;;;9.15;8.13;;;5.70;99.90;;;;;;4967366;28;20085;-65
2023/04/08 01:57:26;;;;;;;9.98;8.52;;;5.70;99.90;;;;;;4961564;28;20454;-65
2023/04/08 01:59:55;;;;;;;9.20;7.93;;;5.70;99.90;;;;;;4960554;28;20128;-64
2023/04/08 02:02:23;;;;;;;8.70;7.75;;;5.70;99.90;;;;;;4966868;28;20136;-65
2023/04/08 02:04:49;;;;;;;8.75;7.88;;;5.70;99.90;;;;;;4968918;28;20030;-65
2023/04/08 02:07:15;;;;;;;8.73;7.78;;;5.70;99.90;;;;;;4959590;28;20483;-64
2023/04/08 02:09:41;;;;;;;9.00;8.10;;;5.70;99.90;;;;;;4964921;28;20042;-65
2023/04/08 02:12:07;;;;;;;8.35;7.40;;;5.80;99.90;;;;;;4963298;28;20128;-65
2023/04/08 02:14:32;;;;;;;8.68;7.78;;;5.80;99.90;;;;;;4972079;28;20046;-65
2023/04/08 02:17:10;;;;;;;8.15;7.28;;;5.80;99.90;;;;;;4964326;28;20042;-65
2023/04/08 02:19:51;;;;;;;9.02;7.30;;;5.70;99.90;;;;;;4965254;28;20038;-65
2023/04/08 02:22:40;;;;;;;9.00;8.05;;;5.80;99.90;;;;;;4976892;28;20038;-64
2023/04/08 02:25:10;;;;;;;8.18;7.32;;;5.70;99.90;;;;;;4964297;28;20043;-65
2023/04/08 02:27:38;;;;;;;8.35;7.47;;;5.70;99.90;;;;;;4963464;28;20041;-65
2023/04/08 02:30:05;;;;;;;9.38;8.05;;;5.80;99.90;;;;;;4962016;28;20042;-65
2023/04/08 02:32:32;;;;;;;8.80;7.57;;;5.80;99.90;;;;;;4951572;28;20034;-65
2023/04/08 02:35:00;;;;;;;8.70;7.40;;;5.80;99.90;;;;;;4961307;28;20043;-65
2023/04/08 02:37:32;;;;;;;8.70;7.80;;;5.80;99.90;;;;;;4961584;28;20090;-65
2023/04/08 02:39:58;;;;;;;8.73;7.50;;;5.80;99.90;;;;;;4964628;28;20053;-71
2023/04/08 02:42:24;;;;;;;9.15;7.47;;;5.70;99.90;;;;;;4963328;28;20076;-70
2023/04/08 02:44:50;;;;;;;8.57;7.68;;;5.70;99.90;;;;;;4963685;28;20034;-70
2023/04/08 02:47:15;;;;;;;8.85;7.75;;;5.80;99.90;;;;;;4952793;28;20038;-70
2023/04/08 02:49:41;;;;;;;8.88;7.97;;;5.80;99.90;;;;;;4975010;28;20171;-70
2023/04/08 02:52:07;;;;;;;8.82;7.93;;;5.70;99.90;;;;;;4955432;28;20085;-70
2023/04/08 02:54:32;;;;;;;9.80;7.80;;;5.60;99.90;;;;;;4962383;28;20082;-70
2023/04/08 02:56:58;;;;;;;8.10;7.30;;;5.70;99.90;;;;;;4963937;28;20152;-70
2023/04/08 02:59:24;;;;;;;8.98;8.02;;;5.70;99.90;;;;;;4960238;28;20042;-71
2023/04/08 03:01:50;;;;;;;8.50;7.20;;;5.70;99.90;;;;;;4963861;28;20058;-71
2023/04/08 03:04:16;;;;;;;8.82;7.72;;;5.70;99.90;;;;;;4956964;28;20077;-71
2023/04/08 03:06:41;;;;;;;9.25;8.02;;;5.80;99.90;;;;;;4965929;28;20171;-71
2023/04/08 03:09:07;;;;;;;8.07;7.20;;;5.80;99.90;;;;;;4965334;28;20035;-71
2023/04/08 03:11:33;;;;;;;9.75;8.10;;;5.80;99.90;;;;;;4964993;28;20088;-71
2023/04/08 03:13:58;;;;;;;8.57;7.68;;;5.90;99.90;;;;;;4961718;28;20148;-71
2023/04/08 03:16:24;;;;;;;9.75;8.10;;;5.90;99.90;;;;;;4960719;28;20038;-71
2023/04/08 03:18:50;;;;;;;9.95;8.23;;;5.90;99.90;;;;;;4964829;28;20034;-71
2023/04/08 03:21:16;;;;;;;10.57;9.25;;;5.90;99.90;;;;;;4976575;28;20710;-71
2023/04/08 03:23:41;;;;;;;10.60;8.45;;;6.00;99.90;;;;;;4964497;28;20110;-70
2023/04/08 03:26:07;;;;;;;10.25;8.52;;;5.90;99.90;;;;;;4966290;28;20172;-71
2023/04/08 03:28:33;;;;;;;10.57;9.02;;;6.00;99.90;;;;;;4966031;28;20105;-71
2023/04/08 03:30:59;;;;;;;11.98;10.23;;;6.00;99.90;;;;;;4959971;28;20047;-71
2023/04/08 03:33:25;;;;;;;14.43;10.25;;;6.00;99.90;;;;;;4962041;28;20557;-72
2023/04/08 03:35:53;;;;;;;11.68;10.27;;;6.10;99.90;;;;;;4962044;28;20064;-70
2023/04/08 03:38:18;;;;;;;13.35;10.02;;;6.10;99.90;;;;;;4963985;28;20050;-71
2023/04/08 03:40:44;;;;;;;11.82;9.70;;;6.10;99.90;;;;;;4960859;28;20336;-70
2023/04/08 03:43:11;;;;;;;13.40;10.48;;;6.10;99.90;;;;;;4962120;28;20109;-71
2023/04/08 03:45:36;;;;;;;11.98;10.05;;;6.00;99.90;;;;;;4949133;28;20030;-71
2023/04/08 03:48:02;;;;;;;13.10;10.05;;;6.00;99.90;;;;;;4961106;28;21033;-70
2023/04/08 03:50:28;;;;;;;12.32;10.95;;;6.00;99.90;;;;;;4960946;28;20042;-71
2023/04/08 03:52:54;;;;;;;12.05;10.10;;;6.00;99.90;;;;;;4962722;28;20034;-71
2023/04/08 03:55:19;;;;;;;13.00;10.18;;;6.10;99.90;;;;;;4961328;28;20050;-70
2023/04/08 03:57:45;;;;;;;12.90;10.05;;;6.00;99.90;;;;;;4964521;28;20035;-70
2023/04/08 04:00:11;;;;;;;11.82;10.43;;;6.00;99.90;;;;;;4963777;28;20253;-71
2023/04/08 04:02:37;;;;;;;11.20;10.02;;;6.00;99.90;;;;;;4965881;28;20034;-71
2023/04/08 04:05:03;;;;;;;12.50;10.40;;;5.90;99.90;;;;;;4962733;28;20057;-70
2023/04/08 04:07:28;;;;;;;13.80;11.27;;;6.00;99.90;;;;;;4962250;28;20034;-71
2023/04/08 04:09:55;;;;;;;12.05;10.70;;;6.00;99.90;;;;;;4960636;28;20066;-71
2023/04/08 04:12:22;;;;;;;14.40;11.55;;;6.00;99.90;;;;;;4965451;28;20482;-71
2023/04/08 04:14:48;;;;;;;12.15;10.32;;;5.90;99.90;;;;;;4967656;28;20046;-70
2023/04/08 04:17:13;;;;;;;13.02;11.05;;;6.00;99.90;;;;;;4967500;28;20142;-70
2023/04/08 04:19:39;;;;;;;12.80;10.52;;;6.00;99.90;;;;;;4967787;28;20046;-71
2023/04/08 04:22:05;;;;;;;13.15;10.57;;;6.10;99.90;;;;;;4966245;28;20108;-70
2023/04/08 04:24:30;;;;;;;12.07;10.70;;;6.10;99.90;;;;;;4968567;28;20034;-70
2023/04/08 04:26:56;;;;;;;15.30;12.23;;;6.10;99.90;;;;;;4966035;28;20055;-70
2023/04/08 04:29:21;;;;;;;12.68;10.80;;;6.10;99.90;;;;;;4949816;28;20053;-71
2023/04/08 04:31:47;;;;;;;13.88;11.63;;;6.10;99.90;;;;;;4966387;28;20078;-71
2023/04/08 04:34:13;;;;;;;13.80;10.57;;;6.10;99.90;;;;;;4969822;28;20054;-71
2023/04/08 04:36:38;;;;;;;13.57;11.88;;;6.20;99.90;;;;;;4966740;28;20073;-71
2023/04/08 04:39:04;;;;;;;15.20;12.50;;;6.20;99.90;;;;;;4963977;28;20034;-71
2023/04/08 04:41:30;;;;;;;15.38;12.20;;;6.10;99.90;;;;;;4949526;28;20034;-68
2023/04/08 04:43:56;;;;;;;14.50;11.45;;;6.00;99.90;;;;;;4965088;28;20149;-70
2023/04/08 04:46:22;;;;;;;13.52;10.98;;;6.00;99.90;;;;;;4965677;28;20038;-70
2023/04/08 04:48:47;;;;;;;13.50;11.40;;;6.10;99.90;;;;;;4969002;28;20042;-70
2023/04/08 04:51:13;;;;;;;15.05;11.70;;;6.20;99.90;;;;;;4967849;28;20189;-70
2023/04/08 04:53:39;;;;;;;15.85;12.13;;;6.20;99.90;;;;;;4968791;28;20038;-70
2023/04/08 04:56:05;;;;;;;15.30;12.27;;;6.20;99.90;;;;;;4969644;28;20121;-70
2023/04/08 04:58:31;;;;;;;14.73;12.43;;;6.20;99.90;;;;;;4959522;28;20694;-70
2023/04/08 05:00:57;;;;;;;16.08;12.65;;;6.20;99.90;;;;;;4962030;28;20042;-70
2023/04/08 05:03:22;;;;;;;16.13;12.95;;;6.20;99.90;;;;;;4970473;28;20053;-70
2023/04/08 05:05:52;;;;;;;14.57;11.93;;;6.20;99.90;;;;;;4965694;28;20138;-70
2023/04/08 05:08:18;;;;;;;16.65;13.13;;;6.20;99.90;;;;;;4966898;28;20046;-70
2023/04/08 05:10:44;;;;;;;15.35;12.75;;;6.20;99.90;;;;;;4965273;28;20065;-70
2023/04/08 05:13:10;;;;;;;18.40;15.60;;;6.20;99.90;;;;;;4966595;28;20035;-70
2023/04/08 05:15:36;;;;;;;16.17;13.45;;;6.20;99.90;;;;;;4979986;28;20100;-65
2023/04/08 05:18:01;;;;;;;17.27;13.05;;;6.20;99.90;;;;;;4970215;28;20054;-65
2023/04/08 05:20:27;;;;;;;16.35;13.10;;;6.20;99.90;;;;;;4958744;28;20050;-64
2023/04/08 05:22:53;;;;;;;18.50;14.07;;;6.20;99.90;;;;;;4965898;28;20041;-65
2023/04/08 05:25:18;;;;;;;15.55;13.73;;;6.20;99.90;;;;;;4971775;28;20133;-65
2023/04/08 05:27:45;;;;;;;16.67;13.63;;;6.20;99.90;;;;;;4952051;28;21809;-65
2023/04/08 05:30:11;;;;;;;16.55;12.85;;;6.20;99.90;;;;;;4967532;28;20450;-65
2023/04/08 05:32:37;;;;;;;17.77;14.52;;;6.30;99.90;;;;;;4964669;28;20247;-69
2023/04/08 05:35:03;;;;;;;21.02;15.77;;;6.30;99.90;;;;;;4963240;28;20933;-69
2023/04/08 05:37:29;;;;;;;17.67;14.35;;;6.30;99.90;;;;;;4964813;28;20093;-71
2023/04/08 05:39:55;;;;;;;19.98;15.15;;;6.30;99.90;;;;;;4965456;28;20047;-70
2023/04/08 05:42:20;;;;;;;15.88;13.05;;;6.30;99.90;;;;;;4964647;28;20036;-71
2023/04/08 05:44:46;;;;;;;16.63;13.88;;;6.30;99.90;;;;;;4968733;28;20052;-71
2023/04/08 05:47:13;;;;;;;18.15;13.80;;;6.30;99.90;;;;;;4957992;28;20038;-70
2023/04/08 05:49:39;;;;;;;16.60;13.32;;;6.40;99.90;;;;;;4966726;28;20069;-71
2023/04/08 05:52:05;;;;;;;19.42;14.43;;;6.40;99.90;;;;;;4960144;28;20596;-71
2023/04/08 05:54:31;;;;;;;16.58;13.55;;;6.40;99.90;;;;;;4963212;28;20057;-71
2023/04/08 05:56:57;;;;;;;16.35;13.68;;;6.40;99.90;;;;;;4966194;28;20077;-71
2023/04/08 05:59:22;;;;;;;17.52;14.85;;;6.40;99.90;;;;;;4964451;28;20822;-71
2023/04/08 06:01:48;;;;;;;17.17;13.75;;;6.40;99.90;;;;;;4967512;28;20566;-71
2023/04/08 06:04:13;;;;;;;18.52;14.80;;;6.50;99.90;;;;;;4959463;28;20038;-71
2023/04/08 06:06:39;;;;;;;22.20;14.68;;;6.50;99.90;;;;;;4961858;28;20050;-71
2023/04/08 06:09:05;;;;;;;17.83;13.55;;;6.40;99.90;;;;;;4968398;28;20038;-72
2023/04/08 06:11:31;;;;;;;18.35;14.48;;;6.40;99.90;;;;;;4967264;28;20031;-66
2023/04/08 06:13:56;;;;;;;17.63;14.65;;;6.40;99.90;;;;;;4964246;28;20049;-64
2023/04/08 06:16:22;;;;;;;19.52;14.93;;;6.40;99.90;;;;;;4964158;28;20042;-65
2023/04/08 06:18:48;;;;;;;18.55;14.43;;;6.50;99.90;;;;;;4966341;28;20141;-65
2023/04/08 06:21:13;;;;;;;18.92;15.68;;;6.50;99.90;;;;;;4948565;28;20523;-65
2023/04/08 06:23:39;;;;;;;20.10;15.40;;;6.50;99.90;;;;;;4966258;28;20475;-65
2023/04/08 06:26:05;;;;;;;19.15;14.18;;;6.50;99.90;;;;;;4968993;28;20058;-65
2023/04/08 06:28:31;;;;;;;18.77;14.05;;;6.50;99.90;;;;;;4964368;28;20078;-65
2023/04/08 06:30:57;;;;;;;19.10;13.85;;;6.50;99.90;;;;;;4957105;28;20279;-72
2023/04/08 06:33:23;;;;;;;16.88;14.25;;;6.50;99.90;;;;;;4955876;28;20038;-72
2023/04/08 06:35:48;;;;;;;16.00;14.07;;;6.50;99.90;;;;;;4963237;28;20143;-73
2023/04/08 06:38:14;;;;;;;16.83;14.02;;;6.50;99.90;;;;;;4965223;28;20046;-73
2023/04/08 06:40:40;;;;;;;15.90;13.50;;;6.50;99.90;;;;;;4950470;28;20068;-72
2023/04/08 06:43:08;;;;;;;17.15;13.93;;;6.50;99.90;;;;;;4968491;28;20563;-71
2023/04/08 06:45:34;;;;;;;24.17;14.25;;;6.50;99.90;;;;;;4972317;28;20128;-74
2023/04/08 06:48:00;;;;;;;15.98;13.15;;;6.50;99.90;;;;;;4967388;28;20411;-73
2023/04/08 06:50:26;;;;;;;18.27;14.63;;;6.50;99.90;;;;;;4952404;28;20194;-72
2023/04/08 06:52:52;;;;;;;17.95;13.05;;;6.50;99.90;;;;;;4966692;28;20477;-74
2023/04/08 06:55:17;;;;;;;26.67;16.75;;;6.60;99.90;;;;;;4972193;28;20057;-74
2023/04/08 06:57:43;;;;;;;17.23;13.90;;;6.50;99.90;;;;;;4969508;28;20065;-73
2023/04/08 07:00:09;;;;;;;17.65;14.55;;;6.50;99.90;;;;;;4971244;28;20092;-73
2023/04/08 07:02:35;;;;;;;17.52;13.88;;;6.60;99.90;;;;;;4962778;28;20494;-72
2023/04/08 07:05:01;;;;;;;18.63;14.38;;;6.60;99.90;;;;;;4961770;28;20035;-73
2023/04/08 07:07:26;;;;;;;16.85;13.43;;;6.60;99.90;;;;;;4970727;28;20046;-72
2023/04/08 07:09:52;;;;;;;17.73;14.43;;;6.60;99.90;;;;;;4969159;28;20042;-73
2023/04/08 07:12:17;;;;;;;16.25;13.77;;;6.60;99.90;;;;;;4968054;28;21633;-73
2023/04/08 07:14:43;;;;;;;17.65;14.55;;;6.60;99.90;;;;;;4961837;28;20054;-72
2023/04/08 07:17:09;;;;;;;18.38;14.48;;;6.60;99.90;;;;;;4967365;28;20132;-73
2023/04/08 07:19:34;;;;;;;19.85;16.02;;;6.70;99.90;;;;;;4969183;28;20038;-72
2023/04/08 07:22:00;;;;;;;18.08;15.05;;;6.60;99.90;;;;;;4960474;28;20081;-72
2023/04/08 07:24:26;;;;;;;17.67;13.80;;;6.60;99.90;;;;;;4970990;28;20046;-73
2023/04/08 07:26:52;;;;;;;19.95;15.40;;;6.70;99.90;;;;;;4967374;28;20034;-72
2023/04/08 07:29:17;;;;;;;20.27;15.65;;;6.70;99.90;;;;;;4976610;28;20078;-72
2023/04/08 07:31:43;;;;;;;18.60;15.02;;;6.70;99.90;;;;;;4966467;28;20046;-72
2023/04/08 07:34:09;;;;;;;19.75;15.65;;;6.70;99.90;;;;;;4971411;28;20054;-72
2023/04/08 07:36:35;;;;;;;19.05;15.40;;;6.70;99.90;;;;;;4971813;28;21176;-72
2023/04/08 07:39:01;;;;;;;17.50;13.55;;;6.60;99.90;;;;;;4972154;28;20133;-72
2023/04/08 07:41:27;;;;;;;18.70;14.10;;;6.70;99.90;;;;;;4975166;28;20109;-72
2023/04/08 07:43:52;;;;;;;22.15;14.38;;;6.70;99.90;;;;;;4976142;28;20023;-72
2023/04/08 07:46:19;;;;;;;20.58;13.85;;;6.80;99.90;;;;;;4970382;28;20042;-72
2023/04/08 07:48:44;;;;;;;18.02;13.88;;;6.90;99.90;;;;;;4977311;28;20470;-72
2023/04/08 07:51:10;;;;;;;18.98;14.77;;;6.90;99.90;;;;;;4967968;28;20078;-74
2023/04/08 07:53:36;;;;;;;21.40;15.40;;;6.80;99.90;;;;;;4976732;28;20066;-73
2023/04/08 07:56:03;;;;;;;20.40;15.68;;;6.70;99.90;;;;;;4972994;28;20466;-71
2023/04/08 07:58:28;;;;;;;18.75;14.70;;;6.70;99.90;;;;;;4975169;28;20905;-71
2023/04/08 08:00:56;;;;;;;28.58;15.85;;;6.70;99.90;;;;;;4976491;28;20055;-73
2023/04/08 08:03:21;;;;;;;23.13;14.48;;;6.80;99.90;;;;;;4976358;28;20042;-72
2023/04/08 08:05:47;;;;;;;19.85;16.10;;;6.80;99.90;;;;;;4964018;28;20034;-72
2023/04/08 08:08:13;;;;;;;19.92;15.35;;;6.90;99.90;;;;;;4975881;28;20038;-71
2023/04/08 08:10:39;;;;;;;20.80;15.45;;;6.90;99.90;;;;;;4976130;28;20081;-72
2023/04/08 08:13:06;;;;;;;16.42;13.43;;;7.00;99.90;;;;;;4976993;28;20089;-72
2023/04/08 08:15:32;;;;;;;17.50;14.30;;;7.10;99.90;;;;;;4973888;28;20104;-72
2023/04/08 08:17:58;;;;;;;16.42;13.20;;;7.10;99.90;;;;;;4976735;28;20122;-71
2023/04/08 08:20:24;;;;;;;18.70;14.73;;;6.90;99.90;;;;;;4979543;28;20034;-72
2023/04/08 08:22:50;;;;;;;17.40;13.95;;;6.90;99.90;;;;;;4971969;28;20057;-73
2023/04/08 08:25:16;;;;;;;19.00;15.70;;;6.80;99.90;;;;;;4974064;28;23233;-72
2023/04/08 08:27:42;;;;;;;19.20;15.15;;;6.90;99.90;;;;;;4973257;28;20077;-72
2023/04/08 08:30:08;;;;;;;20.42;15.48;;;6.90;99.90;;;;;;4977463;28;20403;-73
2023/04/08 08:32:34;;;;;;;17.70;14.10;;;6.90;99.90;;;;;;4965389;28;20526;-73
2023/04/08 08:35:00;;;;;;;17.83;13.48;;;7.00;99.90;;;;;;4967280;28;20081;-71
2023/04/08 08:37:26;;;;;;;26.55;14.18;;;7.00;99.90;;;;;;4980489;28;20121;-72
2023/04/08 08:39:52;;;;;;;19.52;14.27;;;7.00;99.90;;;;;;4977744;28;20088;-71
2023/04/08 08:42:22;;;;;;;18.90;14.38;;;6.90;99.90;;;;;;4978027;28;20043;-71
2023/04/08 08:44:48;;;;;;;17.13;13.40;;;6.90;99.90;;;;;;4974446;28;20042;-65
2023/04/08 08:47:18;;;;;;;20.13;15.65;;;6.80;99.90;;;;;;4974046;28;20043;-66
2023/04/08 08:49:44;;;;;;;23.58;17.65;;;6.90;99.90;;;;;;4974197;28;20045;-66
2023/04/08 08:52:10;;;;;;;22.75;17.45;;;6.90;99.90;;;;;;4974056;28;20394;-65
2023/04/08 08:54:37;;;;;;;33.38;17.55;;;7.00;99.90;;;;;;4969849;28;20042;-65
2023/04/08 08:57:02;;;;;;;35.63;21.20;;;7.00;99.90;;;;;;4973692;28;20026;-65
2023/04/08 08:59:28;;;;;;;33.70;16.50;;;7.00;99.90;;;;;;4974498;28;20667;-65
2023/04/08 09:01:54;;;;;;;22.25;13.40;;;7.00;99.90;;;;;;4973615;28;20038;-65
2023/04/08 09:04:21;;;;;;;30.77;13.20;;;7.00;99.90;;;;;;4975132;28;20058;-64
2023/04/08 09:06:49;;;;;;;14.45;12.30;;;7.10;99.90;;;;;;4979242;28;20042;-65
2023/04/08 09:09:16;;;;;;;12.82;10.77;;;7.10;99.90;;;;;;4978187;28;20033;-64
2023/04/08 09:11:44;;;;;;;12.18;10.55;;;7.10;99.90;;;;;;4970436;28;20046;-64
2023/04/08 09:14:24;;;;;;;12.77;10.63;;;7.10;99.90;;;;;;4974960;28;20065;-64
2023/04/08 09:16:52;;;;;;;18.85;14.13;;;7.10;99.90;;;;;;4970030;28;20046;-64
2023/04/08 09:19:18;;;;;;;18.70;14.75;;;7.20;99.90;;;;;;4973605;28;20038;-65
2023/04/08 09:21:44;;;;;;;20.05;15.32;;;7.30;99.90;;;;;;4972142;28;20617;-72
2023/04/08 09:24:27;;;;;;;22.50;15.45;;;7.40;99.90;;;;;;4975250;28;20090;-72
2023/04/08 09:26:53;;;;;;;21.45;16.52;;;7.40;99.90;;;;;;4976398;28;20034;-72
2023/04/08 09:29:23;;;;;;;14.70;11.10;;;7.40;99.90;;;;;;4952453;28;20058;-72
2023/04/08 09:31:54;;;;;;;14.15;10.85;;;7.40;99.90;;;;;;4951939;28;20118;-71
2023/04/08 09:34:22;;;;;;;14.20;10.80;;;7.40;99.90;;;;;;4961115;28;20043;-70
2023/04/08 09:36:51;;;;;;;13.00;11.15;;;7.40;99.90;;;;;;4974818;28;20739;-71
2023/04/08 09:39:17;;;;;;;12.23;10.63;;;7.30;99.90;;;;;;4970763;28;20552;-71
2023/04/08 09:41:43;;;;;;;11.35;10.05;;;7.30;99.90;;;;;;4966717;28;20149;-70
2023/04/08 09:44:10;;;;;;;12.73;11.30;;;7.20;99.90;;;;;;4972376;28;20053;-70
2023/04/08 09:46:45;;;;;;;14.52;11.02;;;7.30;99.90;;;;;;4970086;28;20027;-69
2023/04/08 09:49:39;;;;;;;16.80;10.90;;;7.40;99.90;;;;;;4969322;28;20042;-70
2023/04/08 09:52:12;;;;;;;12.70;11.10;;;7.70;99.90;;;;;;4972789;28;20034;-71
2023/04/08 09:55:05;;;;;;;12.68;11.38;;;7.70;99.90;;;;;;4977643;28;20125;-70
2023/04/08 09:57:40;;;;;;;13.88;11.52;;;7.70;99.90;;;;;;4979511;28;20047;-71
2023/04/08 10:00:13;;;;;;;13.82;11.60;;;7.70;99.90;;;;;;4971216;28;20254;-70
2023/04/08 10:03:02;;;;;;;11.90;10.23;;;7.80;99.90;;;;;;4978346;28;20033;-71
2023/04/08 10:05:30;;;;;;;17.40;14.27;;;7.80;99.90;;;;;;4977108;28;20054;-70
2023/04/08 10:07:56;;;;;;;11.45;10.18;;;7.80;99.90;;;;;;4975139;28;20042;-70
2023/04/08 10:10:23;;;;;;;13.13;11.45;;;7.80;99.90;;;;;;4970301;28;20720;-71
2023/04/08 10:12:50;;;;;;;12.80;11.45;;;7.80;99.90;;;;;;4977381;28;20046;-71
2023/04/08 10:15:26;;;;;;;12.60;11.30;;;7.80;99.90;;;;;;4969855;28;21175;-71
2023/04/08 10:17:53;;;;;;;12.52;10.93;;;7.80;99.90;;;;;;4972530;28;20443;-69
2023/04/08 10:20:33;;;;;;;20.73;17.10;;;7.80;99.90;;;;;;4966997;28;20042;-71
2023/04/08 10:23:11;;;;;;;13.32;11.90;;;7.80;99.90;;;;;;4965441;28;20034;-72
2023/04/08 10:25:39;;;;;;;13.57;12.18;;;7.70;99.90;;;;;;4941643;28;20046;-71
2023/04/08 10:28:10;;;;;;;12.57;11.27;;;7.60;99.90;;;;;;4973287;28;20048;-71
2023/04/08 10:30:43;;;;;;;14.95;13.35;;;7.60;99.90;;;;;;4977336;28;20046;-71
2023/04/08 10:33:17;;;;;;;15.77;14.07;;;7.50;99.90;;;;;;4971875;28;20120;-72
2023/04/08 10:35:52;;;;;;;13.57;12.18;;;7.50;99.90;;;;;;4970665;28;20134;-73
2023/04/08 10:38:18;;;;;;;14.15;12.75;;;7.50;99.90;;;;;;4976584;28;20121;-71
2023/04/08 10:40:44;;;;;;;14.45;12.93;;;7.60;99.90;;;;;;4969084;28;20076;-71
2023/04/08 10:43:12;;;;;;;16.38;14.50;;;7.60;99.90;;;;;;4970068;28;20491;-73
2023/04/08 10:45:39;;;;;;;18.02;14.25;;;7.50;99.90;;;;;;4963931;28;20042;-72
2023/04/08 10:48:16;;;;;;;14.85;13.30;;;7.50;99.90;;;;;;4972219;28;20038;-72
2023/04/08 10:50:43;;;;;;;15.90;14.20;;;7.50;99.90;;;;;;4972253;28;20042;-72
2023/04/08 10:53:10;;;;;;;16.60;14.88;;;7.60;99.90;;;;;;4960639;28;20055;-73
2023/04/08 10:55:36;;;;;;;18.55;16.58;;;7.60;99.90;;;;;;4954240;28;20813;-64
2023/04/08 10:58:06;;;;;;;20.45;18.35;;;7.60;99.90;;;;;;4980169;28;20097;-64
2023/04/08 11:00:38;;;;;;;22.00;18.48;;;7.60;99.90;;;;;;4964362;28;20055;-64
2023/04/08 11:03:07;;;;;;;;;;;7.60;99.90;;;;;;4975653;28;20060;-64
2023/04/08 11:05:35;;;;;;;16.70;14.68;;;7.60;99.90;;;;;;4968970;28;19910;-64
2023/04/08 11:08:01;;;;;;;16.65;14.95;;;7.60;99.90;;;;;;4970872;28;20041;-64
2023/04/08 11:10:30;;;;;;;18.60;15.65;;;7.60;99.90;;;;;;4966107;28;20038;-64
2023/04/08 11:12:57;;;;;;;17.15;15.35;;;7.60;99.90;;;;;;4950596;28;20117;-64
2023/04/08 11:15:27;;;;;;;18.52;15.00;;;7.70;99.90;;;;;;4961481;28;20038;-64
2023/04/08 11:17:54;;;;;;;19.65;13.55;;;7.70;99.90;;;;;;4972287;28;20049;-64
2023/04/08 11:20:20;;;;;;;13.85;12.40;;;7.70;99.90;;;;;;4971350;28;20643;-64
2023/04/08 11:22:46;;;;;;;14.10;12.52;;;7.70;99.90;;;;;;4982382;28;20041;-64
2023/04/08 11:25:12;;;;;;;12.63;11.32;;;7.70;99.90;;;;;;4975311;28;20341;-64
2023/04/08 11:27:39;;;;;;;17.55;15.65;;;7.70;99.90;;;;;;4966835;28;20187;-64
2023/04/08 11:30:06;;;;;;;20.85;14.35;;;7.70;99.90;;;;;;4973216;28;20046;-64
2023/04/08 11:32:33;;;;;;;15.88;13.82;;;7.70;99.90;;;;;;4975589;28;20030;-64
2023/04/08 11:35:02;;;;;;;13.20;11.85;;;7.70;99.90;;;;;;4974052;28;20062;-64
2023/04/08 11:37:41;;;;;;;12.27;11.07;;;7.70;99.90;;;;;;4975199;28;20110;-64
2023/04/08 11:40:18;;;;;;;13.93;9.95;;;7.70;99.90;;;;;;4958086;28;20057;-64
2023/04/08 11:42:44;;;;;;;10.55;9.52;;;7.70;99.90;;;;;;4974039;28;20060;-64
2023/04/08 11:45:15;;;;;;;10.27;9.13;;;7.80;99.90;;;;;;4972658;28;20579;-65
2023/04/08 11:47:41;;;;;;;10.73;9.32;;;7.80;99.90;;;;;;4968669;28;20521;-65
2023/04/08 11:50:08;;;;;;;12.80;9.95;;;7.90;99.90;;;;;;4953448;28;20054;-65
2023/04/08 11:52:47;;;;;;;11.27;10.13;;;7.90;99.90;;;;;;4972896;28;20038;-71
2023/04/08 11:55:29;;;;;;;11.15;9.98;;;7.90;99.90;;;;;;4976905;28;20042;-73
2023/04/08 11:57:56;;;;;;;10.15;9.13;;;8.00;99.90;;;;;;4964896;28;20038;-72
2023/04/08 12:00:22;;;;;;;9.02;8.10;;;8.00;99.90;;;;;;4968325;28;20043;-72
2023/04/08 12:02:48;;;;;;;8.93;7.80;;;8.00;99.90;;;;;;4967589;28;20113;-72
2023/04/08 12:05:15;;;;;;;9.50;8.02;;;8.00;99.90;;;;;;4964979;28;20511;-71
2023/04/08 12:07:41;;;;;;;9.13;8.23;;;8.00;99.90;;;;;;4947729;28;20042;-73
2023/04/08 12:10:08;;;;;;;9.98;8.90;;;8.00;99.90;;;;;;4953663;28;20141;-73
2023/04/08 12:12:33;;;;;;;11.52;9.85;;;8.10;99.90;;;;;;4955842;28;20686;-72
2023/04/08 12:14:59;;;;;;;11.45;9.55;;;8.00;99.90;;;;;;4958850;28;20407;-71
2023/04/08 12:17:25;;;;;;;8.48;7.57;;;8.00;99.90;;;;;;4963266;28;20073;-72
2023/04/08 12:19:51;;;;;;;12.68;9.05;;;8.10;99.90;;;;;;4959310;28;20459;-71
2023/04/08 12:22:16;;;;;;;13.18;11.82;;;8.10;99.90;;;;;;4961428;28;20047;-70
2023/04/08 12:24:42;;;;;;;9.57;8.68;;;8.20;99.90;;;;;;4964373;28;20125;-73
2023/04/08 12:27:08;;;;;;;8.75;7.85;;;8.20;99.90;;;;;;4957060;28;20043;-72
2023/04/08 12:29:33;;;;;;;8.43;7.63;;;8.10;99.90;;;;;;4952104;28;20042;-72
2023/04/08 12:31:59;;;;;;;8.02;7.22;;;8.00;99.90;;;;;;4965124;28;20038;-65
2023/04/08 12:34:25;;;;;;;8.82;7.93;;;8.00;99.90;;;;;;4949814;28;20042;-64
2023/04/08 12:36:50;;;;;;;8.65;7.75;;;8.10;99.90;;;;;;4967015;28;20039;-64
2023/04/08 12:39:16;;;;;;;7.32;6.60;;;8.10;99.90;;;;;;4966413;28;20129;-64
2023/04/08 12:41:42;;;;;;;8.50;7.68;;;8.10;99.90;;;;;;4973463;28;20129;-64
2023/04/08 12:44:07;;;;;;;7.22;6.60;;;8.10;99.90;;;;;;4952404;28;20041;-65